createdAt,value
2023-02-04T00:00:43.223Z,-0.77
2023-02-04T00:03:29.341Z,-0.73
2023-02-04T00:05:57.393Z,-0.74
2023-02-04T00:08:25.491Z,-0.75
2023-02-04T00:10:55.529Z,-0.75
2023-02-04T00:13:23.498Z,-0.74
2023-02-04T00:15:51.960Z,-0.73
2023-02-04T00:18:21.991Z,-0.72
2023-02-04T00:20:50.444Z,-0.70
2023-02-04T00:23:19.457Z,-0.71
2023-02-04T00:25:47.563Z,-0.74
2023-02-04T00:28:15.616Z,-0.73
2023-02-04T00:30:44.567Z,-0.76
2023-02-04T00:33:13.766Z,-0.72
2023-02-04T00:35:43.498Z,-0.70
2023-02-04T00:38:11.587Z,-0.67
2023-02-04T00:40:39.893Z,-0.69
2023-02-04T00:43:07.969Z,-0.72
2023-02-04T00:45:36.524Z,-0.73
2023-02-04T00:48:04.804Z,-0.68
2023-02-04T00:50:36.284Z,-0.70
2023-02-04T00:53:07.180Z,-0.70
2023-02-04T00:55:35.232Z,-0.74
2023-02-04T00:58:04.059Z,-0.79
2023-02-04T01:00:32.433Z,-0.73
2023-02-04T01:03:02.011Z,-0.75
2023-02-04T01:05:30.313Z,-0.69
2023-02-04T01:08:00.326Z,-0.67
2023-02-04T01:10:29.510Z,-0.67
2023-02-04T01:12:58.602Z,-0.64
2023-02-04T01:15:28.178Z,-0.60
2023-02-04T01:17:56.590Z,-0.58
2023-02-04T01:20:24.559Z,-0.56
2023-02-04T01:22:53.036Z,-0.57
2023-02-04T01:25:21.187Z,-0.55
2023-02-04T01:27:50.035Z,-0.51
2023-02-04T01:30:18.513Z,-0.51
2023-02-04T01:32:46.497Z,-0.46
2023-02-04T01:35:15.934Z,-0.42
2023-02-04T01:37:44.063Z,-0.42
2023-02-04T01:40:13.845Z,-0.42
2023-02-04T01:42:41.848Z,-0.45
2023-02-04T01:45:11.109Z,-0.47
2023-02-04T01:47:40.352Z,-0.45
2023-02-04T01:50:13.237Z,-0.54
2023-02-04T01:52:43.226Z,-0.54
2023-02-04T01:55:15.209Z,-0.60
2023-02-04T01:57:44.398Z,-0.48
2023-02-04T02:00:19.406Z,-0.45
2023-02-04T02:02:51.373Z,-0.41
2023-02-04T02:05:55.424Z,-0.35
2023-02-04T02:08:25.447Z,-0.38
2023-02-04T02:10:53.493Z,-0.37
2023-02-04T02:13:21.878Z,-0.36
2023-02-04T02:15:49.862Z,-0.36
2023-02-04T02:18:17.891Z,-0.42
2023-02-04T02:20:46.691Z,-0.42
2023-02-04T02:23:32.990Z,-0.39
2023-02-04T02:26:01.072Z,-0.42
2023-02-04T02:28:29.016Z,-0.44
2023-02-04T02:30:57.130Z,-0.40
2023-02-04T02:33:26.415Z,-0.40
2023-02-04T02:35:54.756Z,-0.41
2023-02-04T02:38:22.723Z,-0.39
2023-02-04T02:40:51.345Z,-0.39
2023-02-04T02:43:25.691Z,-0.39
2023-02-04T02:45:55.126Z,-0.40
2023-02-04T02:48:23.635Z,-0.42
2023-02-04T02:50:51.770Z,-0.48
2023-02-04T02:53:22.743Z,-0.48
2023-02-04T02:55:51.773Z,-0.53
2023-02-04T02:58:34.666Z,-0.56
2023-02-04T03:01:06.121Z,-0.59
2023-02-04T03:03:49.471Z,-0.60
2023-02-04T03:06:26.389Z,-0.59
2023-02-04T03:08:56.977Z,-0.58
2023-02-04T03:11:26.388Z,-0.55
2023-02-04T03:13:54.798Z,-0.48
2023-02-04T03:16:22.795Z,-0.50
2023-02-04T03:18:50.918Z,-0.43
2023-02-04T03:21:19.215Z,-0.43
2023-02-04T03:23:47.497Z,-0.43
2023-02-04T03:26:15.705Z,-0.48
2023-02-04T03:28:44.086Z,-0.49
2023-02-04T03:31:12.511Z,-0.51
2023-02-04T03:33:40.636Z,-0.50
2023-02-04T03:36:09.751Z,-0.46
2023-02-04T03:38:38.189Z,-0.43
2023-02-04T03:41:06.205Z,-0.39
2023-02-04T03:43:34.240Z,-0.35
2023-02-04T03:46:02.306Z,-0.32
2023-02-04T03:48:30.523Z,-0.25
2023-02-04T03:50:58.557Z,-0.20
2023-02-04T03:53:26.582Z,-0.17
2023-02-04T03:55:54.837Z,-0.12
2023-02-04T03:58:23.945Z,-0.11
2023-02-04T04:00:52.147Z,-0.11
2023-02-04T04:03:20.116Z,-0.07
2023-02-04T04:05:48.130Z,-0.05
2023-02-04T04:08:16.431Z,-0.09
2023-02-04T04:10:44.750Z,-0.09
2023-02-04T04:13:12.742Z,-0.06
2023-02-04T04:15:40.728Z,-0.01
2023-02-04T04:18:08.681Z,0.03
2023-02-04T04:20:37.180Z,0.08
2023-02-04T04:23:05.264Z,0.09
2023-02-04T04:25:33.423Z,0.13
2023-02-04T04:28:02.116Z,0.12
2023-02-04T04:30:31.721Z,0.13
2023-02-04T04:32:59.892Z,0.10
2023-02-04T04:35:28.465Z,0.12
2023-02-04T04:37:56.454Z,0.12
2023-02-04T04:40:24.446Z,0.11
2023-02-04T04:42:52.584Z,0.08
2023-02-04T04:45:21.499Z,0.09
2023-02-04T04:47:49.531Z,0.12
2023-02-04T04:50:17.618Z,0.17
2023-02-04T04:52:45.607Z,0.20
2023-02-04T04:55:13.665Z,0.23
2023-02-04T04:57:41.578Z,0.20
2023-02-04T05:00:18.521Z,0.18
2023-02-04T05:02:47.435Z,0.14
2023-02-04T05:05:15.696Z,0.11
2023-02-04T05:07:43.820Z,0.10
2023-02-04T05:10:11.911Z,0.09
2023-02-04T05:12:40.888Z,0.12
2023-02-04T05:15:09.262Z,0.12
2023-02-04T05:17:37.388Z,0.11
2023-02-04T05:20:05.612Z,0.07
2023-02-04T05:22:33.643Z,0.07
2023-02-04T05:25:01.723Z,-0.05
2023-02-04T05:27:31.331Z,-0.04
2023-02-04T05:29:59.259Z,0.03
2023-02-04T05:32:27.334Z,0.04
2023-02-04T05:34:55.352Z,0.06
2023-02-04T05:37:23.318Z,0.06
2023-02-04T05:39:51.260Z,0.08
2023-02-04T05:42:19.274Z,0.06
2023-02-04T05:44:47.242Z,0.09
2023-02-04T05:47:15.530Z,0.05
2023-02-04T05:49:43.563Z,0.09
2023-02-04T05:52:12.061Z,0.08
2023-02-04T05:54:40.280Z,0.08
2023-02-04T05:57:08.596Z,0.07
2023-02-04T05:59:36.576Z,0.07
2023-02-04T06:02:04.509Z,0.05
2023-02-04T06:04:32.569Z,0.08
2023-02-04T06:07:01.053Z,0.11
2023-02-04T06:09:29.018Z,0.14
2023-02-04T06:11:57.631Z,0.13
2023-02-04T06:14:25.579Z,0.17
2023-02-04T06:16:53.600Z,0.21
2023-02-04T06:19:21.596Z,0.23
2023-02-04T06:21:49.596Z,0.26
2023-02-04T06:24:18.284Z,0.26
2023-02-04T06:26:46.345Z,0.30
2023-02-04T06:29:14.261Z,0.26
2023-02-04T06:31:42.452Z,0.33
2023-02-04T06:34:10.727Z,0.23
2023-02-04T06:36:40.778Z,0.20
2023-02-04T06:39:08.680Z,0.26
2023-02-04T06:41:36.679Z,0.35
2023-02-04T06:44:04.782Z,0.28
2023-02-04T06:46:33.394Z,0.18
2023-02-04T06:49:01.367Z,0.16
2023-02-04T06:51:30.130Z,0.39
2023-02-04T06:53:59.487Z,0.61
2023-02-04T06:56:29.411Z,0.83
2023-02-04T06:58:57.423Z,1.02
2023-02-04T07:01:25.928Z,1.01
2023-02-04T07:03:53.921Z,1.12
2023-02-04T07:06:22.014Z,1.22
2023-02-04T07:08:51.402Z,1.33
2023-02-04T07:11:19.778Z,1.40
2023-02-04T07:13:47.794Z,1.46
2023-02-04T07:16:16.025Z,1.42
2023-02-04T07:18:44.243Z,1.53
2023-02-04T07:21:12.153Z,1.52
2023-02-04T07:23:40.083Z,1.33
2023-02-04T07:26:08.158Z,1.46
2023-02-04T07:28:37.044Z,1.44
2023-02-04T07:31:05.283Z,1.66
2023-02-04T07:33:37.178Z,1.75
2023-02-04T07:36:05.359Z,1.73
2023-02-04T07:38:34.656Z,1.71
2023-02-04T07:41:05.329Z,1.69
2023-02-04T07:43:34.157Z,1.65
2023-02-04T07:46:03.314Z,1.60
2023-02-04T07:48:33.656Z,1.51
2023-02-04T07:51:01.911Z,1.59
2023-02-04T07:53:31.286Z,1.55
2023-02-04T07:55:59.413Z,1.44
2023-02-04T07:58:27.579Z,1.46
2023-02-04T08:00:55.581Z,1.41
2023-02-04T08:03:23.610Z,1.45
2023-02-04T08:05:53.096Z,1.48
2023-02-04T08:08:21.063Z,1.49
2023-02-04T08:10:49.986Z,1.63
2023-02-04T08:13:18.159Z,1.79
2023-02-04T08:15:46.238Z,1.78
2023-02-04T08:18:14.212Z,1.82
2023-02-04T08:20:42.221Z,1.92
2023-02-04T08:23:11.703Z,1.94
2023-02-04T08:25:41.781Z,1.95
2023-02-04T08:28:09.791Z,1.81
2023-02-04T08:30:38.124Z,2.02
2023-02-04T08:33:06.344Z,2.01
2023-02-04T08:35:34.352Z,2.10
2023-02-04T08:38:04.600Z,2.09
2023-02-04T08:40:34.061Z,2.01
2023-02-04T08:43:03.368Z,1.88
2023-02-04T08:45:31.588Z,1.99
2023-02-04T08:48:01.295Z,2.11
2023-02-04T08:50:31.753Z,2.20
2023-02-04T08:52:59.798Z,2.36
2023-02-04T08:55:27.942Z,2.41
2023-02-04T08:57:56.108Z,2.38
2023-02-04T09:00:24.319Z,2.56
2023-02-04T09:02:52.490Z,2.69
2023-02-04T09:05:23.251Z,2.67
2023-02-04T09:07:53.018Z,2.20
2023-02-04T09:10:22.595Z,2.48
2023-02-04T09:12:56.129Z,2.38
2023-02-04T09:15:24.930Z,2.27
2023-02-04T09:18:01.484Z,2.43
2023-02-04T09:20:31.569Z,2.37
2023-02-04T09:23:00.399Z,2.39
2023-02-04T09:25:28.977Z,2.48
2023-02-04T09:27:57.002Z,2.42
2023-02-04T09:30:25.190Z,2.46
2023-02-04T09:32:53.129Z,2.49
2023-02-04T09:35:23.243Z,2.29
2023-02-04T09:37:53.984Z,2.45
2023-02-04T09:40:22.210Z,2.36
2023-02-04T09:42:52.326Z,2.10
2023-02-04T09:45:33.075Z,2.25
2023-02-04T09:48:04.338Z,2.41
2023-02-04T09:50:33.867Z,2.35
2023-02-04T09:53:05.669Z,2.49
2023-02-04T09:55:37.492Z,2.38
2023-02-04T09:58:15.283Z,2.45
2023-02-04T10:00:45.737Z,2.31
2023-02-04T10:03:22.151Z,2.44
2023-02-04T10:05:51.747Z,2.44
2023-02-04T10:08:29.878Z,2.54
2023-02-04T10:10:58.247Z,2.43
2023-02-04T10:13:50.482Z,2.64
2023-02-04T10:16:23.867Z,2.62
2023-02-04T10:18:52.590Z,2.76
2023-02-04T10:21:28.626Z,2.86
2023-02-04T10:23:59.104Z,2.81
2023-02-04T10:26:29.769Z,2.58
2023-02-04T10:29:04.124Z,2.57
2023-02-04T10:31:41.410Z,2.67
2023-02-04T10:34:16.831Z,2.44
2023-02-04T10:36:57.945Z,2.39
2023-02-04T10:39:30.427Z,2.22
2023-02-04T10:42:00.937Z,2.37
2023-02-04T10:44:40.777Z,2.46
2023-02-04T10:47:21.437Z,2.40
2023-02-04T10:50:15.076Z,2.38
2023-02-04T10:52:51.871Z,2.25
2023-02-04T10:55:23.807Z,2.38
2023-02-04T10:57:53.370Z,1.98
2023-02-04T11:00:25.309Z,2.06
2023-02-04T11:03:03.294Z,2.24
2023-02-04T11:05:33.556Z,2.20
2023-02-04T11:08:14.186Z,2.06
2023-02-04T11:10:43.797Z,2.04
2023-02-04T11:13:26.143Z,1.86
2023-02-04T11:16:17.480Z,1.95
2023-02-04T11:19:02.079Z,1.85
2023-02-04T11:21:36.534Z,1.90
2023-02-04T11:24:14.440Z,1.98
2023-02-04T11:26:52.595Z,1.92
2023-02-04T11:29:35.029Z,1.92
2023-02-04T11:32:35.304Z,1.88
2023-02-04T11:35:26.557Z,1.87
2023-02-04T11:37:56.080Z,2.05
2023-02-04T11:40:32.034Z,2.16
2023-02-04T11:43:17.131Z,2.17
2023-02-04T11:45:47.714Z,2.12
2023-02-04T11:48:21.610Z,2.18
2023-02-04T11:50:58.390Z,2.07
2023-02-04T11:53:31.575Z,2.07
2023-02-04T11:56:01.643Z,1.87
2023-02-04T11:58:31.665Z,1.84
2023-02-04T12:01:00.124Z,1.76
2023-02-04T12:03:36.027Z,1.78
2023-02-04T12:06:04.620Z,1.74
2023-02-04T12:08:36.538Z,1.56
2023-02-04T12:11:12.399Z,1.56
2023-02-04T12:13:52.195Z,1.64
2023-02-04T12:16:21.206Z,1.55
2023-02-04T12:18:49.717Z,1.59
2023-02-04T12:21:20.490Z,1.58
2023-02-04T12:23:48.570Z,1.60
2023-02-04T12:26:16.702Z,1.74
2023-02-04T12:28:45.848Z,1.83
2023-02-04T12:31:14.089Z,1.87
2023-02-04T12:33:44.791Z,1.78
2023-02-04T12:36:12.874Z,1.73
2023-02-04T12:38:42.490Z,1.83
2023-02-04T12:41:12.151Z,1.82
2023-02-04T12:43:40.364Z,1.83
2023-02-04T12:46:09.580Z,1.87
2023-02-04T12:48:41.113Z,1.86
2023-02-04T12:51:09.410Z,1.84
2023-02-04T12:53:37.501Z,1.83
2023-02-04T12:56:06.724Z,1.69
2023-02-04T12:58:35.210Z,1.66
2023-02-04T13:01:06.107Z,1.64
2023-02-04T13:03:34.436Z,1.65
2023-02-04T13:06:02.454Z,1.50
2023-02-04T13:08:32.075Z,1.44
2023-02-04T13:11:00.214Z,1.36
2023-02-04T13:13:29.015Z,1.25
2023-02-04T13:15:59.853Z,1.29
2023-02-04T13:18:29.223Z,1.22
2023-02-04T13:20:59.618Z,1.08
2023-02-04T13:23:28.734Z,1.05
2023-02-04T13:25:57.826Z,0.94
2023-02-04T13:28:25.966Z,1.01
2023-02-04T13:30:55.214Z,0.91
2023-02-04T13:33:25.266Z,0.69
2023-02-04T13:35:53.309Z,0.69
2023-02-04T13:38:23.662Z,0.58
2023-02-04T13:40:51.922Z,0.53
2023-02-04T13:43:20.444Z,0.46
2023-02-04T13:45:49.319Z,0.53
2023-02-04T13:48:17.405Z,0.56
2023-02-04T13:50:45.530Z,0.53
2023-02-04T13:53:13.832Z,0.51
2023-02-04T13:55:41.836Z,0.42
2023-02-04T13:58:10.261Z,0.42
2023-02-04T14:00:38.427Z,0.45
2023-02-04T14:03:06.435Z,0.35
2023-02-04T14:05:36.390Z,0.35
2023-02-04T14:08:04.490Z,0.30
2023-02-04T14:10:33.085Z,0.34
2023-02-04T14:13:01.782Z,0.31
2023-02-04T14:15:29.956Z,0.28
2023-02-04T14:17:58.401Z,0.30
2023-02-04T14:20:27.049Z,0.25
2023-02-04T14:22:55.184Z,0.24
2023-02-04T14:25:23.319Z,0.21
2023-02-04T14:27:52.240Z,0.16
2023-02-04T14:30:24.014Z,0.22
2023-02-04T14:32:54.790Z,0.18
2023-02-04T14:35:24.541Z,0.15
2023-02-04T14:37:53.232Z,0.13
2023-02-04T14:40:22.592Z,0.12
2023-02-04T14:42:50.658Z,0.14
2023-02-04T14:45:18.869Z,0.10
2023-02-04T14:47:47.014Z,0.16
2023-02-04T14:50:16.749Z,0.08
2023-02-04T14:52:45.294Z,0.04
2023-02-04T14:55:14.486Z,-0.01
2023-02-04T14:57:42.509Z,0.02
2023-02-04T15:00:11.675Z,0.03
2023-02-04T15:02:40.465Z,-0.01
2023-02-04T15:05:09.610Z,-0.16
2023-02-04T15:07:38.039Z,-0.15
2023-02-04T15:10:09.616Z,-0.08
2023-02-04T15:12:38.166Z,-0.14
2023-02-04T15:15:06.491Z,-0.16
2023-02-04T15:17:34.575Z,-0.20
2023-02-04T15:20:04.122Z,-0.24
2023-02-04T15:22:33.547Z,-0.27
2023-02-04T15:25:01.599Z,-0.24
2023-02-04T15:27:29.783Z,-0.42
2023-02-04T15:29:59.008Z,-0.48
2023-02-04T15:32:27.377Z,-0.52
2023-02-04T15:34:55.412Z,-0.62
2023-02-04T15:37:23.403Z,-0.61
2023-02-04T15:39:51.650Z,-0.57
2023-02-04T15:42:20.765Z,-0.71
2023-02-04T15:44:49.081Z,-0.86
2023-02-04T15:47:19.836Z,-0.92
2023-02-04T15:49:50.216Z,-1.04
2023-02-04T15:52:24.584Z,-1.10
2023-02-04T15:54:55.038Z,-1.10
2023-02-04T15:57:25.180Z,-1.18
2023-02-04T15:59:55.746Z,-1.26
2023-02-04T16:02:23.711Z,-1.33
2023-02-04T16:04:52.706Z,-1.43
2023-02-04T16:07:20.748Z,-1.45
2023-02-04T16:09:48.776Z,-1.49
2023-02-04T16:12:17.046Z,-1.46
2023-02-04T16:14:45.110Z,-1.47
2023-02-04T16:17:13.199Z,-1.58
2023-02-04T16:19:41.500Z,-1.60
2023-02-04T16:22:09.616Z,-1.63
2023-02-04T16:24:38.819Z,-1.65
2023-02-04T16:27:07.268Z,-1.68
2023-02-04T16:29:35.241Z,-1.79
2023-02-04T16:32:03.517Z,-1.78
2023-02-04T16:34:31.577Z,-1.87
2023-02-04T16:36:59.552Z,-1.90
2023-02-04T16:39:27.716Z,-1.90
2023-02-04T16:41:55.735Z,-1.94
2023-02-04T16:44:24.901Z,-1.99
2023-02-04T16:46:53.620Z,-2.06
2023-02-04T16:49:21.731Z,-2.05
2023-02-04T16:51:50.166Z,-2.14
2023-02-04T16:54:18.081Z,-2.20
2023-02-04T16:56:46.421Z,-2.19
2023-02-04T16:59:14.859Z,-2.21
2023-02-04T17:01:42.938Z,-2.19
2023-02-04T17:04:13.142Z,-2.19
2023-02-04T17:06:41.570Z,-2.23
2023-02-04T17:09:09.648Z,-2.36
2023-02-04T17:11:37.595Z,-2.38
2023-02-04T17:14:10.806Z,-2.43
2023-02-04T17:16:38.930Z,-2.35
2023-02-04T17:19:07.304Z,-2.32
2023-02-04T17:21:35.869Z,-2.40
2023-02-04T17:24:04.540Z,-2.43
2023-02-04T17:26:38.391Z,-2.48
2023-02-04T17:29:11.774Z,-2.43
2023-02-04T17:31:43.472Z,-2.48
2023-02-04T17:34:11.634Z,-2.53
2023-02-04T17:36:39.918Z,-2.55
2023-02-04T17:39:08.117Z,-2.63
2023-02-04T17:41:36.589Z,-2.71
2023-02-04T17:44:05.002Z,-2.79
2023-02-04T17:46:34.301Z,-2.79
2023-02-04T17:49:02.507Z,-2.86
2023-02-04T17:51:31.727Z,-2.90
2023-02-04T17:53:59.820Z,-2.98
2023-02-04T17:56:27.874Z,-2.96
2023-02-04T17:58:56.281Z,-2.99
2023-02-04T18:01:25.359Z,-3.02
2023-02-04T18:03:53.682Z,-3.05
2023-02-04T18:06:25.364Z,-3.10
2023-02-04T18:08:56.592Z,-3.02
2023-02-04T18:11:27.735Z,-3.09
2023-02-04T18:14:12.752Z,-3.08
2023-02-04T18:16:41.770Z,-3.11
2023-02-04T18:19:30.156Z,-3.15
2023-02-04T18:21:59.004Z,-3.15
2023-02-04T18:24:34.145Z,-3.29
2023-02-04T18:27:09.192Z,-3.31
2023-02-04T18:29:40.888Z,-3.41
2023-02-04T18:32:08.931Z,-3.42
2023-02-04T18:34:40.653Z,-3.37
2023-02-04T18:37:29.426Z,-3.43
2023-02-04T18:40:09.651Z,-3.40
2023-02-04T18:42:41.015Z,-3.40
2023-02-04T18:45:29.063Z,-3.41
2023-02-04T18:48:21.482Z,-3.55
2023-02-04T18:50:52.402Z,-3.56
2023-02-04T18:53:25.562Z,-3.48
2023-02-04T18:55:58.161Z,-3.48
2023-02-04T18:58:44.836Z,-3.56
2023-02-04T19:01:17.124Z,-3.52
2023-02-04T19:03:53.483Z,-3.49
2023-02-04T19:06:32.050Z,-3.53
2023-02-04T19:09:12.205Z,-3.58
2023-02-04T19:11:43.973Z,-3.50
2023-02-04T19:14:18.252Z,-3.48
2023-02-04T19:16:50.821Z,-3.48
2023-02-04T19:19:58.933Z,-3.46
2023-02-04T19:22:36.060Z,-3.45
2023-02-04T19:25:25.823Z,-3.54
2023-02-04T19:27:59.983Z,-3.50
2023-02-04T19:30:28.010Z,-3.47
2023-02-04T19:32:58.364Z,-3.49
2023-02-04T19:35:28.626Z,-3.51
2023-02-04T19:38:00.606Z,-3.56
2023-02-04T19:40:37.991Z,-3.62
2023-02-04T19:43:34.297Z,-3.67
2023-02-04T19:46:16.857Z,-3.59
2023-02-04T19:48:46.297Z,-3.54
2023-02-04T19:51:26.841Z,-3.53
2023-02-04T19:54:10.639Z,-3.62
2023-02-04T19:56:41.599Z,-3.68
2023-02-04T19:59:18.807Z,-3.70
2023-02-04T20:01:50.434Z,-3.72
2023-02-04T20:04:20.716Z,-3.67
2023-02-04T20:06:48.718Z,-3.37
2023-02-04T20:09:20.041Z,-3.07
2023-02-04T20:11:58.765Z,-2.95
2023-02-04T20:14:38.817Z,-2.90
2023-02-04T20:17:45.852Z,-2.89
2023-02-04T20:20:20.851Z,-2.92
2023-02-04T20:22:49.146Z,-2.81
2023-02-04T20:25:20.039Z,-2.80
2023-02-04T20:27:55.543Z,-2.87
2023-02-04T20:30:28.653Z,-2.89
2023-02-04T20:33:23.633Z,-3.05
2023-02-04T20:36:26.448Z,-3.00
2023-02-04T20:39:14.268Z,-3.05
2023-02-04T20:41:42.792Z,-3.04
2023-02-04T20:44:38.841Z,-3.06
2023-02-04T20:47:19.054Z,-3.16
2023-02-04T20:49:54.144Z,-3.22
2023-02-04T20:52:40.664Z,-3.22
2023-02-04T20:55:28.482Z,-3.29
2023-02-04T20:58:21.120Z,-3.45
2023-02-04T21:00:54.398Z,-3.57
2023-02-04T21:03:26.160Z,-3.55
2023-02-04T21:05:56.379Z,-3.64
2023-02-04T21:08:28.024Z,-3.69
2023-02-04T21:10:57.299Z,-3.74
2023-02-04T21:13:26.027Z,-3.76
2023-02-04T21:15:55.310Z,-3.84
2023-02-04T21:18:26.001Z,-3.84
2023-02-04T21:20:53.997Z,-3.85
2023-02-04T21:23:22.199Z,-3.85
2023-02-04T21:25:51.233Z,-3.95
2023-02-04T21:28:19.418Z,-3.95
2023-02-04T21:30:47.639Z,-3.97
2023-02-04T21:33:17.221Z,-3.89
2023-02-04T21:35:45.449Z,-3.89
2023-02-04T21:38:13.420Z,-3.93
2023-02-04T21:40:41.584Z,-3.97
2023-02-04T21:43:09.611Z,-3.93
2023-02-04T21:45:39.814Z,-3.95
2023-02-04T21:48:08.236Z,-3.97
2023-02-04T21:50:38.624Z,-3.95
2023-02-04T21:53:08.682Z,-3.98
2023-02-04T21:55:37.877Z,-3.93
2023-02-04T21:58:07.218Z,-3.93
2023-02-04T22:00:35.684Z,-3.99
2023-02-04T22:03:04.504Z,-4.04
2023-02-04T22:05:33.063Z,-4.07
2023-02-04T22:08:01.316Z,-4.01
2023-02-04T22:10:30.175Z,-4.04
2023-02-04T22:12:58.205Z,-4.10
2023-02-04T22:15:28.787Z,-4.07
2023-02-04T22:17:59.089Z,-4.16
2023-02-04T22:20:27.070Z,-4.15
2023-02-04T22:22:55.115Z,-4.19
2023-02-04T22:25:23.282Z,-4.17
2023-02-04T22:27:51.406Z,-4.19
2023-02-04T22:30:19.935Z,-4.16
2023-02-04T22:32:47.985Z,-4.19
2023-02-04T22:35:16.924Z,-4.21
2023-02-04T22:37:44.902Z,-4.23
2023-02-04T22:40:13.564Z,-4.21
2023-02-04T22:42:41.538Z,-4.23
2023-02-04T22:45:10.453Z,-4.26
2023-02-04T22:47:38.983Z,-4.20
2023-02-04T22:50:07.664Z,-4.22
2023-02-04T22:52:35.747Z,-4.22
2023-02-04T22:55:04.448Z,-4.25
2023-02-04T22:57:32.479Z,-4.29
2023-02-04T23:00:00.520Z,-4.34
2023-02-04T23:02:28.662Z,-4.34
2023-02-04T23:04:57.210Z,-4.41
2023-02-04T23:07:25.393Z,-4.39
2023-02-04T23:09:53.367Z,-4.43
2023-02-04T23:12:21.374Z,-4.45
2023-02-04T23:14:50.230Z,-4.46
2023-02-04T23:17:18.597Z,-4.48
2023-02-04T23:19:46.626Z,-4.51
2023-02-04T23:22:15.576Z,-4.55
2023-02-04T23:24:43.895Z,-4.56
2023-02-04T23:27:12.171Z,-4.55
2023-02-04T23:29:40.310Z,-4.58
2023-02-04T23:32:09.855Z,-4.57
2023-02-04T23:34:37.864Z,-4.63
2023-02-04T23:37:06.241Z,-4.64
2023-02-04T23:39:34.299Z,-4.60
2023-02-04T23:42:04.081Z,-4.69
2023-02-04T23:44:32.092Z,-4.71
2023-02-04T23:47:00.087Z,-4.69
2023-02-04T23:49:28.816Z,-4.74
2023-02-04T23:51:57.065Z,-4.80
2023-02-04T23:54:25.045Z,-4.78
2023-02-04T23:56:53.754Z,-4.84
2023-02-04T23:59:22.788Z,-4.93
